Time;durP1;ratioP1;P1;durP2;ratioP2;P2;SDS_P1;SDS_P2;PMS_P1;PMS_P2;Temp;Humidity;BMP_temperature;BMP_pressure;BME280_temperature;BME280_humidity;BME280_pressure;Samples;Min_cycle;Max_cycle;Signal;HPM_P1;HPM_P2
2022/03/24 00:02:11;;;;;;;50.65;35.13;;;;;;;3.90;58.17;100857.73;1754855;79;21000;-52
2022/03/24 00:04:40;;;;;;;56.30;35.15;;;;;;;3.87;58.15;100859.16;1756240;81;21525;-53
2022/03/24 00:07:07;;;;;;;58.42;35.92;;;;;;;3.81;58.19;100850.77;1768101;81;21147;-53
2022/03/24 00:09:35;;;;;;;52.98;35.38;;;;;;;3.77;58.24;100854.45;1759579;79;22218;-53
2022/03/24 00:12:02;;;;;;;72.80;40.38;;;;;;;3.72;58.20;100851.57;1742053;79;21027;-53
2022/03/24 00:14:29;;;;;;;61.58;39.73;;;;;;;3.71;58.34;100845.12;1754434;79;21038;-53
2022/03/24 00:16:57;;;;;;;61.02;38.73;;;;;;;3.70;58.32;100839.55;1743448;80;21558;-52
2022/03/24 00:19:26;;;;;;;58.55;36.83;;;;;;;3.68;58.37;100836.14;1754684;79;21223;-53
2022/03/24 00:21:53;;;;;;;62.60;39.35;;;;;;;3.68;58.56;100830.94;1751724;80;21081;-53
2022/03/24 00:24:54;;;;;;;60.10;41.18;;;;;;;3.68;58.67;100827.04;1751788;81;21418;-53
2022/03/24 00:27:22;;;;;;;69.92;41.77;;;;;;;3.66;58.54;100828.87;1751195;80;21052;-54
2022/03/24 00:29:50;;;;;;;64.87;42.43;;;;;;;3.61;58.52;100817.35;1755156;79;21097;-54
2022/03/24 00:32:17;;;;;;;72.97;43.10;;;;;;;3.58;58.50;100819.25;1757764;81;21192;-53
2022/03/24 00:34:45;;;;;;;63.25;38.92;;;;;;;3.54;58.62;100821.98;1751889;81;21637;-54
2022/03/24 00:37:12;;;;;;;62.23;41.70;;;;;;;3.51;58.86;100816.07;1753571;79;21031;-54
2022/03/24 00:39:41;;;;;;;65.50;41.83;;;;;;;3.49;59.08;100810.93;1757842;81;21032;-53
2022/03/24 00:42:11;;;;;;;65.08;42.27;;;;;;;3.49;59.24;100817.44;1751795;80;21018;-54
2022/03/24 00:44:42;;;;;;;74.32;43.68;;;;;;;3.47;59.30;100808.86;1745400;79;21880;-54
2022/03/24 00:47:10;;;;;;;67.72;43.48;;;;;;;3.44;59.29;100798.58;1750033;80;21078;-54
2022/03/24 00:49:39;;;;;;;70.52;42.40;;;;;;;3.43;59.21;100793.44;1677950;83;21072;-54
2022/03/24 00:52:11;;;;;;;68.95;40.15;;;;;;;3.41;59.22;100780.50;1685324;84;21025;-54
2022/03/24 00:54:39;;;;;;;60.75;38.40;;;;;;;3.48;59.14;100784.98;1678591;84;21056;-53
2022/03/24 00:57:07;;;;;;;60.78;38.92;;;;;;;3.56;59.05;100779.45;1676508;83;21902;-53
2022/03/24 00:59:34;;;;;;;59.53;40.58;;;;;;;3.62;59.05;100775.28;1690262;83;21083;-53
2022/03/24 01:02:02;;;;;;;63.30;41.55;;;;;;;3.66;59.07;100771.61;1684849;83;21550;-53
2022/03/24 01:04:32;;;;;;;64.40;41.85;;;;;;;3.71;59.06;100769.64;1685046;83;21630;-53
2022/03/24 01:06:59;;;;;;;60.43;40.08;;;;;;;3.72;59.04;100760.94;1685320;83;21068;-54
2022/03/24 01:09:27;;;;;;;60.10;41.23;;;;;;;3.73;59.08;100762.61;1681801;84;21576;-54
2022/03/24 01:11:56;;;;;;;62.27;40.15;;;;;;;3.72;59.23;100753.13;1687413;83;21043;-54
2022/03/24 01:14:25;;;;;;;59.40;37.55;;;;;;;3.69;59.04;100751.96;1687210;84;21079;-53
2022/03/24 01:16:52;;;;;;;62.45;41.45;;;;;;;3.62;58.92;100745.36;1688742;84;21640;-54
2022/03/24 01:19:20;;;;;;;55.40;40.85;;;;;;;3.58;58.88;100745.09;1687351;82;21056;-53
2022/03/24 01:21:48;;;;;;;61.85;39.42;;;;;;;3.52;58.83;100745.75;1698526;83;21099;-53
2022/03/24 01:24:18;;;;;;;58.15;39.83;;;;;;;3.48;58.85;100742.05;1702729;83;21074;-53
2022/03/24 01:26:45;;;;;;;60.17;40.58;;;;;;;3.44;58.85;100738.74;1699936;82;21011;-54
2022/03/24 01:29:13;;;;;;;56.92;39.23;;;;;;;3.38;58.88;100735.57;1688852;84;21648;-54
2022/03/24 01:31:42;;;;;;;57.98;38.92;;;;;;;3.36;59.03;100733.03;1705683;83;21026;-54
2022/03/24 01:34:09;;;;;;;53.75;38.63;;;;;;;3.33;59.11;100728.00;1760507;80;21141;-54
2022/03/24 01:36:38;;;;;;;58.60;38.95;;;;;;;3.29;59.12;100727.72;1756784;81;21080;-54
2022/03/24 01:39:08;;;;;;;50.90;37.35;;;;;;;3.27;59.22;100720.45;1757887;81;21089;-54
2022/03/24 01:41:38;;;;;;;59.67;37.80;;;;;;;3.23;59.27;100709.34;1763453;80;21067;-53
2022/03/24 01:44:17;;;;;;;57.03;38.40;;;;;;;3.22;59.39;100712.84;1761276;81;21030;-54
2022/03/24 01:46:56;;;;;;;61.05;39.27;;;;;;;3.23;59.77;100714.98;1764695;79;21119;-54
2022/03/24 01:49:25;;;;;;;63.83;42.10;;;;;;;3.23;60.03;100707.18;1759290;81;21110;-53
2022/03/24 01:51:53;;;;;;;63.87;40.98;;;;;;;3.23;60.53;100701.55;1757276;80;21033;-54
2022/03/24 01:54:24;;;;;;;57.73;40.92;;;;;;;3.26;60.83;100704.45;1761868;80;21114;-54
2022/03/24 01:56:52;;;;;;;60.15;39.03;;;;;;;3.29;61.04;100699.11;1759788;79;21125;-54
2022/03/24 01:59:20;;;;;;;60.90;43.38;;;;;;;3.29;61.20;100695.22;1758007;81;21108;-54
2022/03/24 02:01:48;;;;;;;60.12;40.55;;;;;;;3.28;61.21;100690.48;1756835;79;21012;-53
2022/03/24 02:04:16;;;;;;;56.85;39.75;;;;;;;3.27;61.08;100684.87;1762312;81;21133;-54
2022/03/24 02:06:44;;;;;;;55.33;40.15;;;;;;;3.24;60.96;100676.38;1759588;81;21008;-53
2022/03/24 02:09:11;;;;;;;62.38;41.48;;;;;;;3.23;60.83;100674.67;1756869;79;21071;-53
2022/03/24 02:11:40;;;;;;;64.90;42.35;;;;;;;3.19;60.85;100688.73;1704653;80;21129;-53
2022/03/24 02:14:09;;;;;;;62.03;41.33;;;;;;;3.16;61.10;100684.06;1767414;79;21099;-54
2022/03/24 02:16:39;;;;;;;58.50;39.65;;;;;;;3.13;61.26;100681.59;1757708;80;20981;-53
2022/03/24 02:19:13;;;;;;;61.45;40.17;;;;;;;3.12;61.16;100673.39;1767689;79;21607;-53
2022/03/24 02:21:40;;;;;;;61.15;39.53;;;;;;;3.10;61.16;100673.93;1758757;80;21104;-54
2022/03/24 02:24:09;;;;;;;57.90;37.50;;;;;;;3.06;61.14;100678.89;1766598;80;21254;-53
2022/03/24 02:26:37;;;;;;;58.80;40.58;;;;;;;3.04;61.22;100674.66;1760450;80;21069;-53
2022/03/24 02:29:07;;;;;;;55.08;38.20;;;;;;;3.00;61.39;100671.34;1758751;79;21107;-54
2022/03/24 02:31:37;;;;;;;56.20;37.10;;;;;;;3.00;61.49;100673.95;1760693;80;20993;-54
2022/03/24 02:36:52;;;;;;;54.53;37.20;;;;;;;2.99;61.34;100669.64;1676108;83;21269;-53
2022/03/24 02:39:20;;;;;;;54.40;36.83;;;;;;;2.94;61.05;100665.11;1644662;85;21055;-54
2022/03/24 02:41:51;;;;;;;54.20;36.08;;;;;;;2.92;60.86;100663.87;1680939;81;21132;-53
2022/03/24 02:44:23;;;;;;;58.08;36.95;;;;;;;2.89;60.82;100660.56;1708006;81;21059;-52
2022/03/24 02:46:52;;;;;;;55.70;36.75;;;;;;;2.89;60.85;100661.87;1747874;80;21017;-53
2022/03/24 02:49:23;;;;;;;56.13;35.52;;;;;;;2.89;60.95;100657.53;1763490;79;21237;-53
2022/03/24 02:51:54;;;;;;;47.55;34.33;;;;;;;2.90;60.84;100651.41;1766388;80;21032;-52
2022/03/24 02:54:22;;;;;;;48.65;35.35;;;;;;;2.90;60.82;100655.77;1764368;79;21055;-53
2022/03/24 02:56:49;;;;;;;50.28;36.42;;;;;;;2.86;61.12;100643.80;1756597;79;20984;-53
2022/03/24 02:59:17;;;;;;;53.75;35.78;;;;;;;2.90;61.37;100646.20;1766277;80;21359;-54
2022/03/24 03:01:53;;;;;;;56.75;37.17;;;;;;;2.89;61.73;100644.54;1760676;79;21147;-53
2022/03/24 03:04:20;;;;;;;;;;;;;;;2.89;62.06;100640.64;1762778;79;21100;-53
2022/03/24 03:06:49;;;;;;;58.90;38.65;;;;;;;2.87;62.22;100642.44;1759039;80;20160;-53
2022/03/24 03:09:17;;;;;;;55.43;36.80;;;;;;;2.78;62.53;100641.09;1762164;80;21034;-53
2022/03/24 03:11:45;;;;;;;57.83;37.93;;;;;;;2.77;62.82;100634.66;1755349;80;21110;-53
2022/03/24 03:14:14;;;;;;;55.23;38.53;;;;;;;2.75;62.94;100626.92;1751281;80;21275;-53
2022/03/24 03:16:44;;;;;;;49.23;35.40;;;;;;;2.79;63.07;100627.63;1749919;79;21532;-54
2022/03/24 03:19:12;;;;;;;56.37;36.10;;;;;;;2.78;63.12;100616.41;1752610;81;21038;-53
2022/03/24 03:21:41;;;;;;;51.90;35.68;;;;;;;2.79;63.12;100627.63;1752022;81;21063;-53
2022/03/24 03:24:10;;;;;;;58.63;36.48;;;;;;;2.77;63.33;100631.62;1752056;79;21041;-53
2022/03/24 03:26:38;;;;;;;53.68;35.30;;;;;;;2.77;63.48;100627.73;1751879;80;21302;-53
2022/03/24 03:29:06;;;;;;;49.00;34.10;;;;;;;2.81;63.57;100622.37;1753686;79;21477;-53
2022/03/24 03:31:34;;;;;;;53.58;33.95;;;;;;;2.89;63.58;100620.28;1757027;81;21103;-53
2022/03/24 03:34:03;;;;;;;51.02;33.80;;;;;;;2.99;63.41;100617.66;1752308;79;21402;-53
2022/03/24 03:36:33;;;;;;;53.33;34.45;;;;;;;3.08;63.02;100613.82;1752259;81;21070;-52
2022/03/24 03:39:01;;;;;;;54.13;34.85;;;;;;;3.15;62.76;100616.52;1752081;79;21877;-54
2022/03/24 03:41:29;;;;;;;50.43;33.90;;;;;;;3.21;62.40;100613.66;1750856;80;21066;-53
2022/03/24 03:43:58;;;;;;;56.08;35.15;;;;;;;3.21;61.99;100612.36;1750256;81;21084;-53
2022/03/24 03:46:25;;;;;;;53.78;35.03;;;;;;;3.19;61.81;100612.02;1752626;81;21098;-53
2022/03/24 03:48:53;;;;;;;54.83;38.58;;;;;;;3.16;61.80;100604.75;1751930;81;21045;-53
2022/03/24 03:51:21;;;;;;;56.75;36.95;;;;;;;3.18;61.90;100601.22;1753355;81;21642;-53
2022/03/24 03:53:50;;;;;;;58.80;37.03;;;;;;;3.19;61.91;100601.62;1750743;80;21182;-54
2022/03/24 03:56:17;;;;;;;72.15;39.58;;;;;;;3.17;62.01;100597.79;1752998;80;21057;-53
2022/03/24 03:58:44;;;;;;;56.28;37.50;;;;;;;3.19;61.92;100602.92;1751764;79;21627;-53
2022/03/24 04:01:12;;;;;;;57.23;38.00;;;;;;;3.16;61.79;100601.29;1751290;80;21091;-53
2022/03/24 04:03:40;;;;;;;59.83;36.93;;;;;;;3.13;61.62;100604.89;1751040;79;21125;-53
2022/03/24 04:06:10;;;;;;;44.35;26.05;;;;;;;3.12;61.60;100595.39;1752837;80;21074;-53
2022/03/24 04:08:39;;;;;;;45.23;27.52;;;;;;;3.13;61.39;100598.39;1751012;80;21024;-53
2022/03/24 04:11:07;;;;;;;43.55;28.32;;;;;;;3.18;61.09;100599.48;1752235;79;21967;-53
2022/03/24 04:13:37;;;;;;;50.50;30.48;;;;;;;3.23;60.93;100591.02;1750350;81;21112;-53
2022/03/24 04:16:05;;;;;;;55.45;36.05;;;;;;;3.33;60.93;100600.55;1750940;81;22433;-53
2022/03/24 04:18:33;;;;;;;55.43;34.20;;;;;;;3.37;60.94;100605.98;1751524;79;21052;-53
2022/03/24 04:21:01;;;;;;;61.15;34.73;;;;;;;3.37;60.93;100612.94;1756092;81;21073;-53
2022/03/24 04:23:28;;;;;;;39.10;25.55;;;;;;;3.40;60.73;100609.73;1745017;80;21083;-53
2022/03/24 04:25:55;;;;;;;40.43;25.20;;;;;;;3.42;60.43;100605.77;1754125;80;21049;-53
2022/03/24 04:28:23;;;;;;;31.80;21.85;;;;;;;3.50;59.71;100601.89;1750958;81;21239;-53
2022/03/24 04:30:50;;;;;;;31.75;20.05;;;;;;;3.57;58.98;100606.34;1751334;79;21051;-52
2022/03/24 04:33:19;;;;;;;30.92;19.07;;;;;;;3.66;58.32;100603.29;1748487;79;21623;-53
2022/03/24 04:35:46;;;;;;;31.12;17.98;;;;;;;3.71;57.41;100603.91;1754389;79;21061;-53
2022/03/24 04:38:14;;;;;;;26.42;17.92;;;;;;;3.78;57.24;100604.46;1752832;81;21090;-53
2022/03/24 04:40:41;;;;;;;25.27;17.05;;;;;;;3.89;56.70;100598.75;1745247;80;21140;-53
2022/03/24 04:43:08;;;;;;;27.32;18.05;;;;;;;3.98;56.23;100606.56;1748594;79;22273;-53
2022/03/24 04:45:37;;;;;;;30.43;18.87;;;;;;;4.07;55.91;100614.77;1708138;83;21062;-53
2022/03/24 04:48:04;;;;;;;34.83;19.55;;;;;;;4.17;55.62;100614.30;1749348;81;21563;-52
2022/03/24 04:50:32;;;;;;;31.48;19.23;;;;;;;4.26;55.22;100608.19;1750574;81;21081;-53
2022/03/24 04:53:00;;;;;;;31.95;20.10;;;;;;;4.36;54.70;100612.48;1753639;79;21117;-53
2022/03/24 04:55:27;;;;;;;29.80;20.45;;;;;;;4.47;54.29;100615.83;1756365;80;21942;-53
2022/03/24 04:57:54;;;;;;;34.55;20.70;;;;;;;4.57;53.94;100612.30;1753727;80;21021;-53
2022/03/24 05:00:22;;;;;;;29.72;21.60;;;;;;;4.65;53.68;100614.89;1753997;80;21998;-53
2022/03/24 05:02:49;;;;;;;35.85;23.25;;;;;;;4.76;53.33;100613.52;1751973;79;21075;-53
2022/03/24 05:05:17;;;;;;;41.30;24.90;;;;;;;4.85;53.08;100620.84;1752617;79;21261;-52
2022/03/24 05:07:44;;;;;;;43.58;25.08;;;;;;;4.95;52.70;100618.59;1748618;81;21540;-53
2022/03/24 05:10:11;;;;;;;46.65;26.82;;;;;;;5.01;52.42;100616.51;1749649;79;21036;-53
2022/03/24 05:12:40;;;;;;;49.60;27.17;;;;;;;5.11;52.21;100622.52;1758968;80;21036;-53
2022/03/24 05:15:11;;;;;;;50.00;28.42;;;;;;;5.21;51.58;100625.02;1758769;79;21047;-53
2022/03/24 05:17:38;;;;;;;50.88;31.05;;;;;;;5.33;51.21;100626.98;1760310;80;21219;-53
2022/03/24 05:20:12;;;;;;;40.10;28.87;;;;;;;5.45;50.73;100625.95;1762188;81;21611;-53
2022/03/24 05:22:38;;;;;;;48.95;31.12;;;;;;;5.56;50.53;100622.26;1762933;81;21011;-53
2022/03/24 05:25:07;;;;;;;46.85;31.33;;;;;;;5.68;50.14;100627.27;1755490;79;21057;-53
2022/03/24 05:27:36;;;;;;;52.67;29.48;;;;;;;5.78;50.01;100625.81;1749421;79;20992;-53
2022/03/24 05:30:06;;;;;;;50.92;29.05;;;;;;;5.87;49.47;100623.17;1760720;79;21034;-53
2022/03/24 05:32:34;;;;;;;47.30;29.52;;;;;;;5.97;49.36;100622.20;1759843;81;21060;-53
2022/03/24 05:35:05;;;;;;;47.90;28.45;;;;;;;6.07;49.21;100622.05;1754982;79;21031;-53
2022/03/24 05:37:32;;;;;;;38.50;27.32;;;;;;;6.14;48.90;100620.78;1757857;79;21063;-54
2022/03/24 05:40:00;;;;;;;53.00;28.75;;;;;;;6.24;48.93;100635.47;1758312;80;21051;-53
2022/03/24 05:42:27;;;;;;;47.65;29.10;;;;;;;6.32;48.45;100633.23;1741996;79;21224;-53
2022/03/24 05:44:54;;;;;;;46.73;27.85;;;;;;;6.38;48.10;100628.96;1761750;79;21029;-53
2022/03/24 05:47:21;;;;;;;57.23;29.23;;;;;;;6.48;48.16;100629.27;1751391;81;22154;-53
2022/03/24 05:49:51;;;;;;;49.98;29.05;;;;;;;6.55;47.81;100636.28;1764366;81;21031;-53
2022/03/24 05:52:36;;;;;;;46.90;26.95;;;;;;;6.61;47.51;100636.77;1754588;81;21035;-53
2022/03/24 05:55:05;;;;;;;42.20;28.23;;;;;;;6.68;47.53;100634.63;1744894;79;21792;-52
2022/03/24 05:57:33;;;;;;;40.98;28.50;;;;;;;6.72;47.23;100630.05;1746977;81;21036;-52
2022/03/24 06:00:03;;;;;;;43.42;28.15;;;;;;;6.78;47.28;100621.84;1737088;80;21110;-52
2022/03/24 06:02:32;;;;;;;46.55;29.82;;;;;;;6.80;46.42;100623.41;1740946;81;21091;-52
2022/03/24 06:05:00;;;;;;;43.65;28.30;;;;;;;6.86;46.44;100628.28;1735896;81;21520;-51
2022/03/24 06:07:28;;;;;;;55.10;31.00;;;;;;;6.92;46.50;100623.61;1665909;83;21314;-52
2022/03/24 06:09:57;;;;;;;47.40;29.60;;;;;;;6.92;46.10;100614.45;1691022;83;21071;-52
2022/03/24 06:12:25;;;;;;;42.40;26.75;;;;;;;6.97;46.06;100615.02;1751038;80;21086;-52
2022/03/24 06:14:53;;;;;;;50.92;31.20;;;;;;;7.00;45.97;100630.53;1739336;81;21094;-52
2022/03/24 06:17:20;;;;;;;44.35;28.60;;;;;;;6.99;45.85;100624.47;1755046;80;21086;-53
2022/03/24 06:19:52;;;;;;;60.00;29.77;;;;;;;7.06;46.26;100638.84;1747535;79;21112;-52
2022/03/24 06:22:19;;;;;;;52.65;29.60;;;;;;;7.08;46.04;100633.52;1753286;81;21118;-52
2022/03/24 06:24:46;;;;;;;49.27;29.63;;;;;;;7.14;46.22;100635.73;1752241;79;21071;-52
2022/03/24 06:27:16;;;;;;;52.13;29.15;;;;;;;7.14;46.02;100638.36;1747085;80;21104;-53
2022/03/24 06:29:43;;;;;;;50.30;28.80;;;;;;;7.17;45.93;100635.55;1688241;83;21059;-53
2022/03/24 06:32:13;;;;;;;51.55;29.18;;;;;;;7.18;45.94;100650.81;1708088;83;21160;-54
2022/03/24 06:34:40;;;;;;;42.78;27.00;;;;;;;7.18;45.38;100631.19;1704694;83;21732;-54
2022/03/24 06:37:07;;;;;;;48.35;27.82;;;;;;;7.16;45.46;100631.72;1703440;82;21149;-52
2022/03/24 06:39:34;;;;;;;46.25;27.30;;;;;;;7.16;45.78;100643.05;1704060;82;21102;-52
2022/03/24 06:42:02;;;;;;;41.13;25.72;;;;;;;7.20;45.74;100645.84;1701565;82;21063;-52
2022/03/24 06:44:29;;;;;;;50.08;29.07;;;;;;;7.21;45.49;100637.52;1755297;79;21181;-52
2022/03/24 06:46:57;;;;;;;44.30;27.30;;;;;;;7.26;45.80;100641.98;1760774;81;21563;-52
2022/03/24 06:49:24;;;;;;;46.53;26.82;;;;;;;7.24;45.41;100635.54;1759534;81;20996;-52
2022/03/24 06:51:51;;;;;;;48.17;27.48;;;;;;;7.28;45.24;100644.52;1749197;79;21699;-52
2022/03/24 06:54:18;;;;;;;45.83;27.07;;;;;;;7.28;45.38;100637.53;1756527;81;20999;-53
2022/03/24 06:56:46;;;;;;;45.80;26.35;;;;;;;7.31;45.25;100646.95;1754655;80;21155;-53
2022/03/24 06:59:13;;;;;;;43.55;26.57;;;;;;;7.35;45.52;100650.59;1756984;79;21461;-53
2022/03/24 07:01:40;;;;;;;53.20;27.15;;;;;;;7.41;45.68;100662.45;1758216;81;21102;-53
2022/03/24 07:04:07;;;;;;;47.00;26.20;;;;;;;7.44;45.53;100658.34;1754335;80;21659;-51
2022/03/24 07:06:35;;;;;;;47.30;27.42;;;;;;;7.50;45.04;100657.10;1756319;81;21118;-52
2022/03/24 07:09:04;;;;;;;43.38;25.82;;;;;;;7.50;45.39;100652.73;1752813;80;21001;-53
2022/03/24 07:11:33;;;;;;;40.75;24.57;;;;;;;7.56;45.40;100648.88;1754919;81;21516;-52
2022/03/24 07:14:01;;;;;;;38.88;23.70;;;;;;;7.60;45.14;100655.14;1728212;81;21555;-52
2022/03/24 07:16:29;;;;;;;44.85;23.38;;;;;;;7.66;45.12;100649.13;1727108;81;21097;-52
2022/03/24 07:18:56;;;;;;;42.85;23.55;;;;;;;7.72;45.35;100655.30;1731166;81;21622;-52
2022/03/24 07:21:25;;;;;;;40.90;23.70;;;;;;;7.76;45.08;100656.77;1673412;85;21170;-52
2022/03/24 07:23:52;;;;;;;43.95;25.85;;;;;;;7.77;44.95;100643.58;1693969;83;21128;-53
2022/03/24 07:26:19;;;;;;;33.42;21.40;;;;;;;7.77;45.19;100646.20;1671398;85;21054;-52
2022/03/24 07:28:48;;;;;;;32.98;21.70;;;;;;;7.82;44.83;100640.67;1706260;82;21035;-52
2022/03/24 07:31:17;;;;;;;38.70;21.23;;;;;;;7.83;44.76;100648.88;1674083;85;21156;-52
2022/03/24 07:33:44;;;;;;;43.25;23.52;;;;;;;7.85;45.07;100647.03;1664711;83;21129;-52
2022/03/24 07:36:13;;;;;;;38.75;20.32;;;;;;;7.86;45.02;100648.70;1672012;85;21053;-52
2022/03/24 07:38:40;;;;;;;41.80;22.50;;;;;;;7.89;44.93;100639.81;1707365;82;21091;-53
2022/03/24 07:41:08;;;;;;;36.00;21.42;;;;;;;7.94;45.04;100643.80;1668191;85;22227;-53
2022/03/24 07:43:35;;;;;;;33.90;20.52;;;;;;;7.99;44.41;100645.66;1717810;83;21134;-53
2022/03/24 07:46:02;;;;;;;34.58;19.90;;;;;;;8.00;44.05;100638.17;1674598;85;22060;-53
2022/03/24 07:48:30;;;;;;;33.65;18.85;;;;;;;8.07;43.96;100636.44;1688260;82;21028;-52
2022/03/24 07:50:59;;;;;;;31.77;19.75;;;;;;;8.10;43.96;100637.11;1671433;85;21054;-53
2022/03/24 07:53:40;;;;;;;34.00;18.42;;;;;;;8.13;43.82;100628.19;1654860;84;21066;-53
2022/03/24 07:56:08;;;;;;;33.80;18.07;;;;;;;8.14;43.33;100637.27;1691358;82;21099;-53
2022/03/24 07:58:36;;;;;;;26.23;17.67;;;;;;;8.19;43.54;100638.28;1720412;81;21249;-53
2022/03/24 08:01:03;;;;;;;35.83;18.95;;;;;;;8.20;43.77;100638.62;1716136;81;21098;-52
2022/03/24 08:03:31;;;;;;;26.90;17.85;;;;;;;8.22;43.54;100638.08;1707951;81;21531;-53
2022/03/24 08:05:59;;;;;;;30.35;18.67;;;;;;;8.25;43.19;100636.54;1669211;85;21070;-53
2022/03/24 08:08:26;;;;;;;35.23;17.00;;;;;;;8.28;43.51;100632.89;1670772;85;21085;-52
2022/03/24 08:10:54;;;;;;;33.63;17.55;;;;;;;8.32;43.08;100637.83;1706508;82;21910;-53
2022/03/24 08:13:22;;;;;;;32.88;18.20;;;;;;;8.37;42.91;100638.37;1678724;84;21034;-52
2022/03/24 08:15:50;;;;;;;29.48;17.87;;;;;;;8.45;43.33;100637.03;1714344;82;21122;-53
2022/03/24 08:18:17;;;;;;;25.55;16.70;;;;;;;8.52;42.96;100638.30;1756891;81;21051;-53
2022/03/24 08:20:49;;;;;;;25.17;14.30;;;;;;;8.57;42.72;100639.30;1756238;79;21118;-52
2022/03/24 08:23:17;;;;;;;18.57;11.70;;;;;;;8.60;40.96;100629.92;1744880;80;21247;-52
2022/03/24 08:25:44;;;;;;;17.82;11.97;;;;;;;8.70;40.26;100635.73;1755944;79;20965;-53
2022/03/24 08:28:12;;;;;;;22.98;14.53;;;;;;;8.77;39.85;100624.35;1751967;80;21044;-53
2022/03/24 08:30:44;;;;;;;23.15;12.68;;;;;;;8.76;39.30;100632.33;1755636;79;20992;-52
2022/03/24 08:33:11;;;;;;;20.17;12.88;;;;;;;8.77;39.64;100632.70;1745771;80;21079;-51
2022/03/24 08:35:40;;;;;;;19.98;12.35;;;;;;;8.78;39.96;100632.60;1756059;79;21101;-52
2022/03/24 08:38:08;;;;;;;24.98;16.73;;;;;;;8.84;40.46;100630.02;1756434;79;21619;-52
2022/03/24 08:40:35;;;;;;;29.52;17.77;;;;;;;8.87;39.19;100620.63;1758634;81;21004;-52
2022/03/24 08:43:03;;;;;;;26.35;16.60;;;;;;;8.90;39.80;100627.81;1755561;80;21012;-52
2022/03/24 08:45:31;;;;;;;30.97;17.15;;;;;;;8.95;39.61;100635.38;1760372;81;21122;-52
2022/03/24 08:47:59;;;;;;;26.52;16.65;;;;;;;8.94;39.94;100628.44;1759231;81;21202;-52
2022/03/24 08:50:27;;;;;;;23.55;14.43;;;;;;;8.95;39.41;100620.94;1751265;80;21071;-52
2022/03/24 08:52:56;;;;;;;21.48;16.45;;;;;;;9.02;39.27;100618.25;1744345;79;21063;-52
2022/03/24 08:55:24;;;;;;;32.70;16.85;;;;;;;9.04;39.74;100618.14;1753245;79;21047;-53
2022/03/24 08:57:52;;;;;;;22.42;14.53;;;;;;;9.06;39.90;100608.37;1752181;80;21130;-52
2022/03/24 09:00:19;;;;;;;20.95;12.60;;;;;;;9.03;39.72;100612.06;1751446;79;21160;-52
2022/03/24 09:02:48;;;;;;;21.77;13.18;;;;;;;9.08;40.11;100611.27;1749754;81;21587;-52
2022/03/24 09:05:19;;;;;;;33.40;21.12;;;;;;;9.13;39.79;100610.09;1742550;79;21659;-52
2022/03/24 09:07:46;;;;;;;39.55;27.50;;;;;;;9.20;39.89;100619.23;1747838;79;21067;-52
2022/03/24 09:10:15;;;;;;;39.50;26.10;;;;;;;9.21;39.85;100614.33;1760509;81;21523;-52
2022/03/24 09:12:46;;;;;;;35.25;23.32;;;;;;;9.27;39.47;100629.18;1757459;79;21365;-52
2022/03/24 09:15:18;;;;;;;31.45;20.72;;;;;;;9.32;39.05;100624.09;1754476;79;21450;-52
2022/03/24 09:17:46;;;;;;;34.95;23.83;;;;;;;9.33;38.49;100614.80;1746687;79;21113;-52
2022/03/24 09:20:18;;;;;;;39.95;23.05;;;;;;;9.36;38.62;100617.17;1747186;79;21087;-52
2022/03/24 09:22:47;;;;;;;28.15;19.40;;;;;;;9.41;38.66;100626.87;1762002;81;21094;-53
2022/03/24 09:25:14;;;;;;;31.35;21.12;;;;;;;9.48;38.35;100612.83;1759899;81;21179;-52
2022/03/24 09:27:43;;;;;;;29.23;21.12;;;;;;;9.53;37.86;100608.57;1745122;80;21110;-52
2022/03/24 09:30:15;;;;;;;29.72;18.45;;;;;;;9.58;38.39;100607.76;1755774;81;21134;-52
2022/03/24 09:32:45;;;;;;;28.75;17.65;;;;;;;9.63;38.11;100606.95;1753372;81;21067;-52
2022/03/24 09:35:14;;;;;;;26.35;17.70;;;;;;;9.67;38.08;100607.94;1754984;80;21489;-52
2022/03/24 09:37:42;;;;;;;24.98;16.20;;;;;;;9.75;38.30;100611.78;1759176;80;21247;-52
2022/03/24 09:40:11;;;;;;;18.98;12.07;;;;;;;9.84;38.19;100618.53;1745563;79;21035;-52
2022/03/24 09:42:39;;;;;;;24.02;11.85;;;;;;;9.93;34.41;100620.95;1758427;79;21533;-53
2022/03/24 09:45:10;;;;;;;25.48;14.03;;;;;;;9.97;35.07;100642.59;1755939;81;21548;-52
2022/03/24 09:47:38;;;;;;;19.07;11.60;;;;;;;9.99;35.34;100610.00;1761690;81;21102;-52
2022/03/24 09:50:06;;;;;;;19.77;10.82;;;;;;;10.02;35.16;100609.77;1749937;80;21183;-52
2022/03/24 09:52:34;;;;;;;18.35;12.35;;;;;;;10.04;35.79;100624.13;1753870;81;21047;-52
2022/03/24 09:55:02;;;;;;;22.70;14.23;;;;;;;10.09;35.78;100617.22;1756245;79;21015;-52
2022/03/24 09:57:29;;;;;;;21.23;12.68;;;;;;;10.09;35.64;100620.67;1754336;81;21040;-52
2022/03/24 09:59:56;;;;;;;21.02;14.70;;;;;;;10.16;35.68;100610.05;1757211;81;21044;-52
2022/03/24 10:02:24;;;;;;;24.95;15.72;;;;;;;10.24;35.80;100621.33;1759470;81;21139;-52
2022/03/24 10:05:01;;;;;;;23.42;14.73;;;;;;;10.30;35.22;100622.16;1753309;80;21048;-52
2022/03/24 10:07:38;;;;;;;17.77;12.65;;;;;;;10.29;35.26;100619.19;1752569;81;21570;-54
2022/03/24 10:10:08;;;;;;;23.27;16.65;;;;;;;10.32;35.50;100624.25;1732708;80;21051;-52
2022/03/24 10:12:37;;;;;;;26.20;18.48;;;;;;;10.42;35.22;100615.17;1760228;80;21059;-52
2022/03/24 10:15:08;;;;;;;28.00;17.75;;;;;;;10.49;34.79;100619.03;1751735;80;21148;-53
2022/03/24 10:17:36;;;;;;;27.17;18.62;;;;;;;10.51;34.58;100611.86;1735814;81;21027;-52
2022/03/24 10:20:18;;;;;;;24.80;15.75;;;;;;;10.55;34.76;100601.93;1735611;82;21523;-52
2022/03/24 10:22:57;;;;;;;25.32;16.85;;;;;;;10.63;34.85;100626.36;1730731;80;21046;-52
2022/03/24 10:28:30;;;;;;;38.02;22.62;;;;;;;10.82;35.29;100617.39;1791970;78;22532;-54
2022/03/24 10:31:03;;;;;;;44.38;30.25;;;;;;;10.92;34.94;100614.39;1763940;80;21003;-55
2022/03/24 10:33:34;;;;;;;42.33;27.25;;;;;;;10.90;33.83;100616.80;1770253;78;21231;-55
2022/03/24 10:36:14;;;;;;;40.65;25.15;;;;;;;10.87;34.12;100622.30;1762031;80;20916;-54
2022/03/24 10:38:53;;;;;;;44.83;28.10;;;;;;;10.83;33.66;100625.66;1770194;78;21062;-53
2022/03/24 10:41:27;;;;;;;39.95;23.45;;;;;;;10.80;34.02;100635.59;1758049;80;21075;-54
2022/03/24 10:43:58;;;;;;;31.97;20.85;;;;;;;10.75;34.52;100626.72;1761210;80;21388;-55
2022/03/24 10:46:30;;;;;;;29.90;21.00;;;;;;;10.70;34.79;100624.92;1764373;80;21598;-54
2022/03/24 10:48:57;;;;;;;33.92;22.35;;;;;;;10.63;34.55;100619.78;1759430;80;21066;-54
2022/03/24 10:51:33;;;;;;;31.17;21.62;;;;;;;10.55;34.36;100617.72;1763776;79;21514;-54
2022/03/24 10:54:28;;;;;;;27.58;20.23;;;;;;;10.50;34.60;100619.38;1764052;80;21020;-55
2022/03/24 10:57:14;;;;;;;28.10;19.82;;;;;;;10.45;34.46;100619.38;1772959;78;21082;-55
2022/03/24 10:59:58;;;;;;;39.80;24.63;;;;;;;10.36;34.82;100627.48;1773791;80;21073;-52
2022/03/24 11:02:21;;;;;;;42.55;26.75;;;;;;;10.28;34.71;100620.13;1765788;80;21055;-53
2022/03/24 11:04:48;;;;;;;48.80;30.00;;;;;;;10.21;34.37;100620.23;1770866;80;21058;-53
2022/03/24 11:07:26;;;;;;;62.10;41.23;;;;;;;10.14;34.91;100619.86;1762962;80;21082;-55
2022/03/24 11:09:54;;;;;;;56.33;36.28;;;;;;;10.14;35.17;100625.11;1771368;78;21501;-54
2022/03/24 11:12:36;;;;;;;42.70;29.87;;;;;;;10.08;35.13;100622.93;1764131;80;21525;-53
2022/03/24 11:15:07;;;;;;;41.92;27.27;;;;;;;10.09;34.84;100629.87;1706128;81;21089;-54
2022/03/24 11:17:36;;;;;;;41.58;28.02;;;;;;;10.16;34.42;100630.27;1728783;82;21046;-54
2022/03/24 11:20:08;;;;;;;54.23;33.18;;;;;;;10.15;34.29;100630.72;1722305;82;21082;-54
2022/03/24 11:22:59;;;;;;;43.40;26.45;;;;;;;10.15;34.22;100637.29;1696158;83;21115;-54
2022/03/24 11:25:28;;;;;;;35.60;22.98;;;;;;;10.16;34.39;100632.89;1715160;82;21281;-52
2022/03/24 11:27:56;;;;;;;30.05;20.80;;;;;;;10.07;34.23;100630.47;1698351;83;21062;-52
2022/03/24 11:30:24;;;;;;;30.45;18.45;;;;;;;10.10;34.38;100634.65;1678466;84;21172;-52
2022/03/24 11:32:54;;;;;;;33.92;21.85;;;;;;;10.11;34.16;100627.97;1682053;84;21032;-53